ホバート の空港の天気 - METARとTAF

ホバート国際空港 ( YMHB / HBA ) - オーストラリア タスマニア州、Cambridge
飛行場実況気象(Metar)
観測時間02/18 01:30 AEDT (02/17 14:30 UTC)
風向・風速北 3m/s
視程10km以上
天気現象
全天の4割程度の雲 雲底高度 3350m
気温19℃
湿度68%
気圧1003hPa
METARYMHB 171430Z 35006KT CAVOK 19/13 Q1003 SCT110
過去の天気等 Google飛行場航空写真 Wunderground天気予報

過去48時間のMETAR

飛行場予報(TAF)
発表時間: 2/17 22:21 AEDT (2/17 11:21 UTC)
予報対象時間: 17日23時 AEDT ~ 18日23時 AEDT
風向・風速北 6m/s
視程10km以上
全天の4割程度の雲 雲底高度 1520m
18日4時 AEDT から
風向・風速北北西 4m/s
視程10km以上
天気現象弱いしゅう雨
全天の8割程度の雲 雲底高度 910m
18日11時 AEDT から
風向・風速西北西 8m/s 瞬間風速 13m/s
視程10km以上
全天の4割程度の雲 雲底高度 1520m
18日14時 AEDT から
風向・風速西 10m/s 瞬間風速 15m/s
視程10km以上
全天の4割程度の雲 雲底高度 1520m
18日20時 AEDT から
風向・風速西 7m/s
視程10km以上
全天の4割程度の雲 雲底高度 1370m
TAF YMHB 171121Z 1712/1812 35012KT 9999 SCT050
FM171700 34008KT 9999 -SHRA BKN030
FM180000 29015G25KT 9999 SCT050
FM180300 28020G30KT 9999 SCT050
FM180900 28014KT 9999 SCT045